KAPY

Zapata County Airport

Zapata, Texas, USA
METAR KAPY 261335Z AUTO 17006KT 10SM CLR 26/21 A2984 RMK AO2 T02640215
Observed Flight Rules
May-26 @ 13:35 UTC (19 minutes ago) Visual Flight Rules
Wind Visibility Clouds
170° at 6 knots 10 miles
  • Clear skies
Temperatures Readings
Current 26°C / 79°F
Dewpoint 22°C / 72°F
Humidity 79%
Altimeter 29.84" Hg
Pressure 1010 hPa
Elevation 129
METAR KAPY 261335Z AUTO 17006KT 10SM CLR 26/21 A2984 RMK AO2 T02640215
Observed Flight Rules
May-26 @ 13:35 UTC
(19 minutes ago)
VFR
Wind Visibility
170° at 6 knots 10 miles
Clouds
  • Clear skies
Temperature Dewpoint
26°C / 79°F 22°C / 72°F
Humidity Altimeter Pressure
79% 29.84" Hg 1010 hPa